createdAt,value
2019-03-29T00:01:48.377Z,82.00
2019-03-29T00:04:22.859Z,81.75
2019-03-29T00:06:56.791Z,80.53
2019-03-29T00:09:31.495Z,87.65
2019-03-29T00:12:07.182Z,84.58
2019-03-29T00:14:42.340Z,84.47
2019-03-29T00:17:17.921Z,86.20
2019-03-29T00:19:54.133Z,80.57
2019-03-29T00:22:28.489Z,65.45
2019-03-29T00:25:03.020Z,63.80
2019-03-29T00:27:37.614Z,66.25
2019-03-29T00:30:12.844Z,67.50
2019-03-29T00:32:47.767Z,71.07
2019-03-29T00:35:23.244Z,71.60
2019-03-29T00:37:58.160Z,70.75
2019-03-29T00:40:33.421Z,63.87
2019-03-29T00:43:07.477Z,60.48
2019-03-29T00:45:42.347Z,54.85
2019-03-29T00:48:17.203Z,54.05
2019-03-29T00:50:51.611Z,50.35
2019-03-29T00:53:25.181Z,48.78
2019-03-29T00:55:59.997Z,46.92
2019-03-29T00:58:34.523Z,45.73
2019-03-29T01:01:08.581Z,41.55
2019-03-29T01:03:42.817Z,42.53
2019-03-29T01:06:16.813Z,41.68
2019-03-29T01:08:52.022Z,41.33
2019-03-29T01:11:26.934Z,38.85
2019-03-29T01:14:01.654Z,34.27
2019-03-29T01:16:36.374Z,35.92
2019-03-29T01:19:10.867Z,34.00
2019-03-29T01:21:45.495Z,32.38
2019-03-29T01:24:20.256Z,30.40
2019-03-29T01:26:54.551Z,30.32
2019-03-29T01:29:29.255Z,30.05
2019-03-29T01:32:03.727Z,30.88
2019-03-29T01:34:38.034Z,28.87
2019-03-29T01:37:12.037Z,30.40
2019-03-29T01:39:47.723Z,32.20
2019-03-29T01:42:22.271Z,31.20
2019-03-29T01:44:56.962Z,31.15
2019-03-29T01:47:31.013Z,32.60
2019-03-29T01:50:06.341Z,38.67
2019-03-29T01:52:41.040Z,39.78
2019-03-29T01:55:16.373Z,39.75
2019-03-29T01:57:50.341Z,42.13
2019-03-29T02:00:36.321Z,44.95
2019-03-29T02:03:11.145Z,49.98
2019-03-29T02:05:46.062Z,52.95
2019-03-29T02:08:34.819Z,49.53
2019-03-29T02:10:58.095Z,51.35
2019-03-29T02:13:31.778Z,51.37
2019-03-29T02:16:06.862Z,52.98
2019-03-29T02:18:41.587Z,53.30
2019-03-29T02:21:17.043Z,54.70
2019-03-29T02:23:52.303Z,58.28
2019-03-29T02:26:27.344Z,68.20
2019-03-29T02:29:02.164Z,61.10
2019-03-29T02:31:36.918Z,58.70
2019-03-29T02:34:12.079Z,59.80
2019-03-29T02:36:46.614Z,58.30
2019-03-29T02:39:21.712Z,52.45
2019-03-29T02:41:56.707Z,53.73
2019-03-29T02:44:31.480Z,50.40
2019-03-29T02:47:06.351Z,54.27
2019-03-29T02:49:40.754Z,50.00
2019-03-29T02:52:15.535Z,46.08
2019-03-29T02:54:50.305Z,51.73
2019-03-29T02:57:24.199Z,53.95
2019-03-29T02:59:59.009Z,48.73
2019-03-29T03:02:33.742Z,48.00
2019-03-29T03:05:08.063Z,45.17
2019-03-29T03:07:41.944Z,45.45
2019-03-29T03:10:16.674Z,41.00
2019-03-29T03:12:51.061Z,38.88
2019-03-29T03:15:25.554Z,38.92
2019-03-29T03:17:59.569Z,38.90
2019-03-29T03:20:34.506Z,38.02
2019-03-29T03:23:09.082Z,35.95
2019-03-29T03:25:44.339Z,38.55
2019-03-29T03:28:19.948Z,39.05
2019-03-29T03:30:54.452Z,38.35
2019-03-29T03:33:28.819Z,34.05
2019-03-29T03:36:03.914Z,34.35
2019-03-29T03:38:38.987Z,34.95
2019-03-29T03:41:13.218Z,31.15
2019-03-29T03:43:48.278Z,36.65
2019-03-29T03:46:23.029Z,34.25
2019-03-29T03:48:58.214Z,33.50
2019-03-29T03:51:32.752Z,32.15
2019-03-29T03:54:08.140Z,29.30
2019-03-29T03:56:43.342Z,31.30
2019-03-29T03:59:18.449Z,30.50
2019-03-29T04:01:53.611Z,32.70
2019-03-29T04:04:28.526Z,32.33
2019-03-29T04:07:02.990Z,30.82
2019-03-29T04:09:49.481Z,32.55
2019-03-29T04:12:13.933Z,33.98
2019-03-29T04:14:47.583Z,31.30
2019-03-29T04:17:22.176Z,33.25
2019-03-29T04:19:57.005Z,33.42
2019-03-29T04:22:31.541Z,33.75
2019-03-29T04:25:06.347Z,31.12
2019-03-29T04:27:40.715Z,31.82
2019-03-29T04:30:16.140Z,31.42
2019-03-29T04:32:50.876Z,32.17
2019-03-29T04:35:26.536Z,33.15
2019-03-29T04:38:01.642Z,31.95
2019-03-29T04:40:36.131Z,32.90
2019-03-29T04:43:10.881Z,32.28
2019-03-29T04:45:46.985Z,31.68
2019-03-29T04:48:22.074Z,31.02
2019-03-29T04:50:57.102Z,32.88
2019-03-29T04:53:32.013Z,32.08
2019-03-29T04:56:07.024Z,32.40
2019-03-29T04:58:41.514Z,32.08
2019-03-29T05:01:17.482Z,32.90
2019-03-29T05:03:52.396Z,46.10
2019-03-29T05:06:27.336Z,58.55
2019-03-29T05:09:01.116Z,56.77
2019-03-29T05:11:36.126Z,58.85
2019-03-29T05:14:10.839Z,54.13
2019-03-29T05:16:45.813Z,55.92
2019-03-29T05:19:21.417Z,55.25
2019-03-29T05:21:55.377Z,52.85
2019-03-29T05:24:30.433Z,52.62
2019-03-29T05:27:05.973Z,47.88
2019-03-29T05:29:41.389Z,49.38
2019-03-29T05:32:16.179Z,45.35
2019-03-29T05:34:50.567Z,41.58
2019-03-29T05:37:25.703Z,41.28
2019-03-29T05:39:59.970Z,41.70
2019-03-29T05:42:35.550Z,40.43
2019-03-29T05:45:10.120Z,39.80
2019-03-29T05:47:45.301Z,38.88
2019-03-29T05:50:21.068Z,37.58
2019-03-29T05:52:55.612Z,39.63
2019-03-29T05:55:32.762Z,38.65
2019-03-29T05:58:06.552Z,39.58
2019-03-29T06:00:41.396Z,37.53
2019-03-29T06:03:16.340Z,37.08
2019-03-29T06:05:50.911Z,36.93
2019-03-29T06:08:25.627Z,35.90
2019-03-29T06:10:59.700Z,38.08
2019-03-29T06:13:34.510Z,38.17
2019-03-29T06:16:08.778Z,37.13
2019-03-29T06:18:42.858Z,37.98
2019-03-29T06:21:17.811Z,36.98
2019-03-29T06:23:52.809Z,37.15
2019-03-29T06:26:27.884Z,37.53
2019-03-29T06:29:02.193Z,36.98
2019-03-29T06:31:37.103Z,38.30
2019-03-29T06:34:12.020Z,37.65
2019-03-29T06:36:50.539Z,37.70
2019-03-29T06:39:25.798Z,37.25
2019-03-29T06:41:59.256Z,36.88
2019-03-29T06:44:34.280Z,36.80
2019-03-29T06:47:09.450Z,38.17
2019-03-29T06:49:44.881Z,37.48
2019-03-29T06:52:20.863Z,35.70
2019-03-29T06:54:55.090Z,36.95
2019-03-29T06:57:29.973Z,35.83
2019-03-29T07:00:03.351Z,35.58
2019-03-29T07:02:36.834Z,34.92
2019-03-29T07:05:09.944Z,33.70
2019-03-29T07:07:47.114Z,34.15
2019-03-29T07:10:21.510Z,36.00
2019-03-29T07:12:56.981Z,36.63
2019-03-29T07:15:30.995Z,34.65
2019-03-29T07:18:04.380Z,35.98
2019-03-29T07:20:42.376Z,35.63
2019-03-29T07:23:16.168Z,36.58
2019-03-29T07:25:50.403Z,35.85
2019-03-29T07:28:24.930Z,35.13
2019-03-29T07:30:58.024Z,33.35
2019-03-29T07:33:33.271Z,33.02
2019-03-29T07:36:09.282Z,32.55
2019-03-29T07:38:42.725Z,31.02
2019-03-29T07:41:30.738Z,31.93
2019-03-29T07:43:52.942Z,32.33
2019-03-29T07:46:27.521Z,33.28
2019-03-29T07:49:01.348Z,34.65
2019-03-29T07:51:36.666Z,32.55
2019-03-29T07:54:11.293Z,31.00
2019-03-29T07:56:45.948Z,35.13
2019-03-29T07:59:20.808Z,33.92
2019-03-29T08:01:55.416Z,32.30
2019-03-29T08:04:31.087Z,30.62
2019-03-29T08:07:06.268Z,34.73
2019-03-29T08:09:41.325Z,33.18
2019-03-29T08:12:16.111Z,33.83
2019-03-29T08:14:50.510Z,33.73
2019-03-29T08:17:25.069Z,31.87
2019-03-29T08:20:35.770Z,35.95
2019-03-29T08:22:36.696Z,32.83
2019-03-29T08:25:11.203Z,32.93
2019-03-29T08:27:46.030Z,33.42
2019-03-29T08:30:20.675Z,32.60
2019-03-29T08:32:55.859Z,32.65
2019-03-29T08:35:30.750Z,36.08
2019-03-29T08:38:06.388Z,36.05
2019-03-29T08:40:44.956Z,30.32
2019-03-29T08:43:18.311Z,29.80
2019-03-29T08:45:53.269Z,27.95
2019-03-29T08:48:27.884Z,27.60
2019-03-29T08:51:02.779Z,28.83
2019-03-29T08:53:37.326Z,27.20
2019-03-29T08:56:12.215Z,25.82
2019-03-29T08:58:46.670Z,24.63
2019-03-29T09:01:20.830Z,25.43
2019-03-29T09:04:04.743Z,23.38
2019-03-29T09:06:31.300Z,23.45
2019-03-29T09:09:07.882Z,21.80
2019-03-29T09:11:41.686Z,20.15
2019-03-29T09:14:15.888Z,20.55
2019-03-29T09:16:49.569Z,21.50
2019-03-29T09:19:24.432Z,21.37
2019-03-29T09:21:57.810Z,22.98
2019-03-29T09:24:32.301Z,21.60
2019-03-29T09:27:07.262Z,21.12
2019-03-29T09:29:40.902Z,18.52
2019-03-29T09:32:14.919Z,18.92
2019-03-29T09:34:48.407Z,16.37
2019-03-29T09:37:21.425Z,17.05
2019-03-29T09:39:54.767Z,16.52
2019-03-29T09:42:29.660Z,13.13
2019-03-29T09:45:02.512Z,11.08
2019-03-29T09:47:40.089Z,12.98
2019-03-29T09:50:12.279Z,14.43
2019-03-29T09:52:47.033Z,15.03
2019-03-29T09:55:20.742Z,16.07
2019-03-29T09:57:54.708Z,15.05
2019-03-29T10:00:28.789Z,15.38
2019-03-29T10:03:02.973Z,16.62
2019-03-29T10:05:38.031Z,18.40
2019-03-29T10:08:12.328Z,18.10
2019-03-29T10:10:46.943Z,15.05
2019-03-29T10:13:20.757Z,13.90
2019-03-29T10:15:54.778Z,15.83
2019-03-29T10:18:29.803Z,17.42
2019-03-29T10:21:04.842Z,15.40
2019-03-29T10:23:39.305Z,12.45
2019-03-29T10:26:13.908Z,14.90
2019-03-29T10:28:48.205Z,12.40
2019-03-29T10:31:32.137Z,13.93
2019-03-29T10:33:59.273Z,12.58
2019-03-29T10:36:34.069Z,10.93
2019-03-29T10:39:12.959Z,12.55
2019-03-29T10:41:47.819Z,12.03
2019-03-29T10:44:22.438Z,12.15
2019-03-29T10:46:57.506Z,11.65
2019-03-29T10:49:31.176Z,12.23
2019-03-29T10:52:06.218Z,12.60
2019-03-29T10:54:40.613Z,11.05
2019-03-29T10:57:14.823Z,8.98
2019-03-29T10:59:49.063Z,9.75
2019-03-29T11:02:24.115Z,8.93
2019-03-29T11:04:58.836Z,8.45
2019-03-29T11:07:33.442Z,9.23
2019-03-29T11:10:08.109Z,9.40
2019-03-29T11:12:43.022Z,10.28
2019-03-29T11:15:16.823Z,10.38
2019-03-29T11:17:50.805Z,10.00
2019-03-29T11:20:26.305Z,9.03
2019-03-29T11:22:59.567Z,10.13
2019-03-29T11:25:33.893Z,9.00
2019-03-29T11:28:07.168Z,8.68
2019-03-29T11:30:42.973Z,8.93
2019-03-29T11:33:17.068Z,11.48
2019-03-29T11:35:51.062Z,9.03
2019-03-29T11:38:25.625Z,7.72
2019-03-29T11:40:59.706Z,8.48
2019-03-29T11:43:34.008Z,8.95
2019-03-29T11:46:08.344Z,8.95
2019-03-29T11:48:42.436Z,8.00
2019-03-29T11:51:19.531Z,8.95
2019-03-29T11:53:53.840Z,9.20
2019-03-29T11:56:28.890Z,8.30
2019-03-29T11:59:02.806Z,8.55
2019-03-29T12:01:37.943Z,10.18
2019-03-29T12:04:13.185Z,9.40
2019-03-29T12:06:48.233Z,8.55
2019-03-29T12:09:23.148Z,9.95
2019-03-29T12:11:58.098Z,7.92
2019-03-29T12:14:33.038Z,8.45
2019-03-29T12:17:07.216Z,8.68
2019-03-29T12:19:42.386Z,8.53
2019-03-29T12:22:18.188Z,8.10
2019-03-29T12:24:53.897Z,8.50
2019-03-29T12:27:28.840Z,8.95
2019-03-29T12:30:04.361Z,9.33
2019-03-29T12:32:38.946Z,8.93
2019-03-29T12:35:13.109Z,9.83
2019-03-29T12:37:47.468Z,9.23
2019-03-29T12:40:21.940Z,8.45
2019-03-29T12:42:56.364Z,8.25
2019-03-29T12:45:30.829Z,9.30
2019-03-29T12:48:05.713Z,9.95
2019-03-29T12:50:40.186Z,9.53
2019-03-29T12:53:14.529Z,9.38
2019-03-29T12:55:48.639Z,9.70
2019-03-29T12:58:23.691Z,9.03
2019-03-29T13:00:57.255Z,10.18
2019-03-29T13:03:30.524Z,9.35
2019-03-29T13:06:04.231Z,10.03
2019-03-29T13:08:38.648Z,9.95
2019-03-29T13:11:11.425Z,10.03
2019-03-29T13:13:45.803Z,10.20
2019-03-29T13:16:20.852Z,10.23
2019-03-29T13:18:54.854Z,10.75
2019-03-29T13:21:28.696Z,12.50
2019-03-29T13:24:03.110Z,14.23
2019-03-29T13:26:37.643Z,13.78
2019-03-29T13:29:12.492Z,13.48
2019-03-29T13:31:47.344Z,13.10
2019-03-29T13:34:21.074Z,13.03
2019-03-29T13:36:55.023Z,13.20
2019-03-29T13:39:28.302Z,12.05
2019-03-29T13:42:02.544Z,12.33
2019-03-29T13:44:36.011Z,12.13
2019-03-29T13:47:10.118Z,13.22
2019-03-29T13:49:45.854Z,12.65
2019-03-29T13:52:19.492Z,12.58
2019-03-29T13:54:53.989Z,12.30
2019-03-29T13:57:28.748Z,12.68
2019-03-29T14:00:03.407Z,12.80
2019-03-29T14:02:37.110Z,12.45
2019-03-29T14:05:11.428Z,12.47
2019-03-29T14:07:46.585Z,12.13
2019-03-29T14:10:21.238Z,13.00
2019-03-29T14:12:55.884Z,12.25
2019-03-29T14:15:30.701Z,12.00
2019-03-29T14:18:05.110Z,13.38
2019-03-29T14:20:39.981Z,13.32
2019-03-29T14:23:14.671Z,13.25
2019-03-29T14:25:48.875Z,12.15
2019-03-29T14:28:24.625Z,13.72
2019-03-29T14:30:58.084Z,14.28
2019-03-29T14:33:31.969Z,13.43
2019-03-29T14:36:06.795Z,15.00
2019-03-29T14:38:41.031Z,13.32
2019-03-29T14:41:15.141Z,11.93
2019-03-29T14:43:49.474Z,13.72
2019-03-29T14:46:23.923Z,11.38
2019-03-29T14:48:58.644Z,12.43
2019-03-29T14:51:33.246Z,12.37
2019-03-29T14:54:07.731Z,13.70
2019-03-29T14:56:41.947Z,13.48
2019-03-29T14:59:16.420Z,13.62
2019-03-29T15:01:50.542Z,13.72
2019-03-29T15:04:25.239Z,13.22
2019-03-29T15:06:59.788Z,13.20
2019-03-29T15:09:34.423Z,13.00
2019-03-29T15:12:08.992Z,13.68
2019-03-29T15:14:42.875Z,15.43
2019-03-29T15:17:17.709Z,12.98
2019-03-29T15:19:52.171Z,13.10
2019-03-29T15:22:27.199Z,12.60
2019-03-29T15:25:02.007Z,13.88
2019-03-29T15:27:37.041Z,14.25
2019-03-29T15:30:11.048Z,13.88
2019-03-29T15:32:45.732Z,14.53
2019-03-29T15:35:21.064Z,14.90
2019-03-29T15:37:55.623Z,18.98
2019-03-29T15:40:30.574Z,23.62
2019-03-29T15:43:05.587Z,14.43
2019-03-29T15:45:40.537Z,13.95
2019-03-29T15:48:15.583Z,13.13
2019-03-29T15:50:49.941Z,13.45
2019-03-29T15:53:24.956Z,13.05
2019-03-29T15:55:59.823Z,12.95
2019-03-29T15:58:33.598Z,12.35
2019-03-29T16:01:07.753Z,12.05
2019-03-29T16:03:42.716Z,11.10
2019-03-29T16:06:17.206Z,12.53
2019-03-29T16:08:51.654Z,12.18
2019-03-29T16:11:25.685Z,11.75
2019-03-29T16:14:00.585Z,11.45
2019-03-29T16:16:35.439Z,10.32
2019-03-29T16:19:10.365Z,11.28
2019-03-29T16:21:44.786Z,11.60
2019-03-29T16:24:18.473Z,11.45
2019-03-29T16:26:53.526Z,13.13
2019-03-29T16:29:28.153Z,18.90
2019-03-29T16:32:02.491Z,19.00
2019-03-29T16:34:37.526Z,20.52
2019-03-29T16:37:11.968Z,22.25
2019-03-29T16:39:46.923Z,22.95
2019-03-29T16:42:21.404Z,25.10
2019-03-29T16:44:56.405Z,22.48
2019-03-29T16:47:30.927Z,19.42
2019-03-29T16:50:05.656Z,19.55
2019-03-29T16:52:40.205Z,16.48
2019-03-29T16:55:14.854Z,18.25
2019-03-29T16:57:49.677Z,20.35
2019-03-29T17:00:23.656Z,21.60
2019-03-29T17:02:57.877Z,34.85
2019-03-29T17:05:30.656Z,43.30
2019-03-29T17:08:05.787Z,35.10
2019-03-29T17:10:41.001Z,30.92
2019-03-29T17:13:15.079Z,31.37
2019-03-29T17:16:01.166Z,30.52
2019-03-29T17:18:29.500Z,29.50
2019-03-29T17:20:59.398Z,28.02
2019-03-29T17:23:33.174Z,27.35
2019-03-29T17:26:07.838Z,26.77
2019-03-29T17:28:44.696Z,29.55
2019-03-29T17:31:18.428Z,26.33
2019-03-29T17:33:52.855Z,22.95
2019-03-29T17:36:26.817Z,24.75
2019-03-29T17:39:00.689Z,25.55
2019-03-29T17:41:35.823Z,22.37
2019-03-29T17:44:10.811Z,20.15
2019-03-29T17:46:43.815Z,23.15
2019-03-29T17:49:17.261Z,22.82
2019-03-29T17:51:50.449Z,23.77
2019-03-29T17:54:29.992Z,22.13
2019-03-29T17:57:04.223Z,21.57
2019-03-29T17:59:38.114Z,22.37
2019-03-29T18:02:11.412Z,22.60
2019-03-29T18:04:44.733Z,22.80
2019-03-29T18:07:19.130Z,22.50
2019-03-29T18:09:53.728Z,23.10
2019-03-29T18:12:27.451Z,29.80
2019-03-29T18:15:01.147Z,25.75
2019-03-29T18:17:34.889Z,25.65
2019-03-29T18:20:08.731Z,31.57
2019-03-29T18:22:42.343Z,29.50
2019-03-29T18:25:16.702Z,28.05
2019-03-29T18:27:50.982Z,24.98
2019-03-29T18:30:41.680Z,27.02
2019-03-29T18:33:16.670Z,25.85
2019-03-29T18:35:55.231Z,26.10
2019-03-29T18:38:30.126Z,20.02
2019-03-29T18:41:03.742Z,18.35
2019-03-29T18:43:38.526Z,21.27
2019-03-29T18:46:13.043Z,21.37
2019-03-29T18:48:47.725Z,21.25
2019-03-29T18:51:21.841Z,22.00
2019-03-29T18:53:56.731Z,21.65
2019-03-29T18:56:31.398Z,20.48
2019-03-29T18:59:05.844Z,27.00
2019-03-29T19:01:39.131Z,21.37
2019-03-29T19:04:11.979Z,21.70
2019-03-29T19:06:46.103Z,22.85
2019-03-29T19:09:21.718Z,22.55
2019-03-29T19:11:56.003Z,28.02
2019-03-29T19:14:29.321Z,34.78
2019-03-29T19:17:03.860Z,37.55
2019-03-29T19:19:38.047Z,37.53
2019-03-29T19:22:10.806Z,45.40
2019-03-29T19:24:46.061Z,53.42
2019-03-29T19:27:20.342Z,51.42
2019-03-29T19:29:54.780Z,63.20
2019-03-29T19:32:28.701Z,59.63
2019-03-29T19:35:02.449Z,69.00
2019-03-29T19:37:36.921Z,68.83
2019-03-29T19:40:11.438Z,74.27
2019-03-29T19:42:44.777Z,73.28
2019-03-29T19:45:19.453Z,83.33
2019-03-29T19:47:53.542Z,88.92
2019-03-29T19:50:28.430Z,87.85
2019-03-29T19:53:02.723Z,88.60
2019-03-29T19:55:37.024Z,83.80
2019-03-29T19:58:14.878Z,88.72
2019-03-29T20:00:47.954Z,97.53
2019-03-29T20:03:23.492Z,97.33
2019-03-29T20:05:58.155Z,97.78
2019-03-29T20:08:31.324Z,100.60
2019-03-29T20:11:05.500Z,100.30
2019-03-29T20:13:41.159Z,106.55
2019-03-29T20:16:14.991Z,106.50
2019-03-29T20:18:49.997Z,107.22
2019-03-29T20:21:23.724Z,105.47
2019-03-29T20:23:56.900Z,90.03
2019-03-29T20:26:32.258Z,89.00
2019-03-29T20:29:06.267Z,80.22
2019-03-29T20:31:40.260Z,64.00
2019-03-29T20:34:15.352Z,58.42
2019-03-29T20:36:49.740Z,64.25
2019-03-29T20:39:24.045Z,59.42
2019-03-29T20:41:57.605Z,61.40
2019-03-29T20:44:31.015Z,61.98
2019-03-29T20:47:04.213Z,59.35
2019-03-29T20:49:38.295Z,63.95
2019-03-29T20:52:12.159Z,66.70
2019-03-29T20:54:45.443Z,69.75
2019-03-29T20:57:19.664Z,68.47
2019-03-29T20:59:53.684Z,67.75
2019-03-29T21:02:29.157Z,73.02
2019-03-29T21:05:01.884Z,75.87
2019-03-29T21:07:36.721Z,81.40
2019-03-29T21:10:10.799Z,79.75
2019-03-29T21:12:44.471Z,79.42
2019-03-29T21:15:20.932Z,75.95
2019-03-29T21:17:56.911Z,77.50
2019-03-29T21:20:31.441Z,81.97
2019-03-29T21:23:04.754Z,85.32
2019-03-29T21:25:38.545Z,85.65
2019-03-29T21:28:12.586Z,87.15
2019-03-29T21:30:47.229Z,88.20
2019-03-29T21:33:21.669Z,89.10
2019-03-29T21:35:56.758Z,95.32
2019-03-29T21:38:31.286Z,94.00
2019-03-29T21:41:06.013Z,94.45
2019-03-29T21:43:41.061Z,91.92
2019-03-29T21:46:16.040Z,91.85
2019-03-29T21:48:52.583Z,91.35
2019-03-29T21:51:25.804Z,91.80
2019-03-29T21:54:00.193Z,89.42
2019-03-29T21:56:33.891Z,95.22
2019-03-29T21:59:07.992Z,92.15
2019-03-29T22:01:43.271Z,89.10
2019-03-29T22:04:18.211Z,89.37
2019-03-29T22:06:52.820Z,93.92
2019-03-29T22:09:36.888Z,92.65
2019-03-29T22:12:03.129Z,88.78
2019-03-29T22:14:37.248Z,88.70
2019-03-29T22:17:12.159Z,90.83
2019-03-29T22:19:46.834Z,89.45
2019-03-29T22:22:22.120Z,90.72
2019-03-29T22:24:56.828Z,89.13
2019-03-29T22:27:31.558Z,87.72
2019-03-29T22:30:05.912Z,87.25
2019-03-29T22:32:40.416Z,87.72
2019-03-29T22:35:15.052Z,88.15
2019-03-29T22:37:49.272Z,78.55
2019-03-29T22:40:24.194Z,84.52
2019-03-29T22:42:59.539Z,76.33
2019-03-29T22:45:34.703Z,78.37
2019-03-29T22:48:09.713Z,76.80
2019-03-29T22:50:42.881Z,73.47
2019-03-29T22:53:17.017Z,70.57
2019-03-29T22:55:50.767Z,76.15
2019-03-29T22:58:28.341Z,75.00
2019-03-29T23:01:05.271Z,72.55
2019-03-29T23:03:40.253Z,74.45
2019-03-29T23:06:14.929Z,70.72
2019-03-29T23:08:49.957Z,68.35
2019-03-29T23:11:24.500Z,74.22
2019-03-29T23:13:59.096Z,67.95
2019-03-29T23:16:33.200Z,63.50
2019-03-29T23:19:07.367Z,65.85
2019-03-29T23:21:41.821Z,66.15
2019-03-29T23:24:16.699Z,67.53
2019-03-29T23:26:51.227Z,66.47
2019-03-29T23:29:26.460Z,68.47
2019-03-29T23:32:01.011Z,67.75
2019-03-29T23:34:35.923Z,65.92
2019-03-29T23:37:10.746Z,67.78
2019-03-29T23:39:44.746Z,65.05
2019-03-29T23:42:18.923Z,64.40
2019-03-29T23:44:53.400Z,64.45
2019-03-29T23:47:28.232Z,63.25
2019-03-29T23:50:02.764Z,60.23
2019-03-29T23:52:37.314Z,61.28
2019-03-29T23:55:11.881Z,60.92
2019-03-29T23:57:45.915Z,54.13
